createdAt,value
2023-10-12T00:01:50.728Z,98.20
2023-10-12T00:05:12.629Z,98.10
2023-10-12T00:08:35.116Z,98.10
2023-10-12T00:12:00.010Z,97.80
2023-10-12T00:15:23.781Z,98.40
2023-10-12T00:18:45.528Z,98.00
2023-10-12T00:22:07.286Z,98.20
2023-10-12T00:25:29.020Z,98.30
2023-10-12T00:28:50.642Z,98.50
2023-10-12T00:32:13.644Z,98.70
2023-10-12T00:35:35.424Z,98.80
2023-10-12T00:38:57.740Z,99.00
2023-10-12T00:42:19.793Z,99.50
2023-10-12T00:45:41.632Z,99.80
2023-10-12T00:49:05.018Z,99.90
2023-10-12T00:52:26.923Z,99.90
2023-10-12T00:55:48.674Z,99.90
2023-10-12T00:59:10.356Z,99.90
2023-10-12T01:02:32.008Z,99.90
2023-10-12T01:05:55.079Z,99.90
2023-10-12T01:09:16.772Z,99.90
2023-10-12T01:12:38.411Z,99.90
2023-10-12T01:16:00.234Z,99.90
2023-10-12T01:19:22.233Z,99.90
2023-10-12T01:22:45.695Z,99.90
2023-10-12T01:26:08.510Z,99.90
2023-10-12T01:29:30.235Z,99.90
2023-10-12T01:32:51.912Z,99.90
2023-10-12T01:36:13.588Z,99.90
2023-10-12T01:39:36.607Z,99.90
2023-10-12T01:42:58.372Z,99.90
2023-10-12T01:46:20.150Z,99.90
2023-10-12T01:49:41.906Z,99.90
2023-10-12T01:53:03.704Z,99.90
2023-10-12T01:56:26.689Z,99.90
2023-10-12T01:59:48.308Z,99.90
2023-10-12T02:03:10.259Z,99.90
2023-10-12T02:06:31.902Z,99.90
2023-10-12T02:09:59.890Z,99.90
2023-10-12T02:13:24.376Z,99.90
2023-10-12T02:16:46.428Z,99.90
2023-10-12T02:20:08.702Z,99.90
2023-10-12T02:23:30.339Z,99.90
2023-10-12T02:26:51.974Z,99.90
2023-10-12T02:30:15.298Z,99.90
2023-10-12T02:33:36.949Z,99.90
2023-10-12T02:36:59.471Z,99.90
2023-10-12T02:40:21.189Z,99.90
2023-10-12T02:43:42.840Z,99.90
2023-10-12T02:47:05.834Z,99.90
2023-10-12T02:50:27.618Z,99.90
2023-10-12T02:53:49.425Z,99.90
2023-10-12T02:57:11.056Z,99.90
2023-10-12T03:00:32.710Z,99.90
2023-10-12T03:03:55.910Z,99.90
2023-10-12T03:07:18.232Z,99.90
2023-10-12T03:10:39.855Z,99.90
2023-10-12T03:14:01.543Z,99.90
2023-10-12T03:17:23.217Z,99.90
2023-10-12T03:20:46.182Z,99.90
2023-10-12T03:24:08.223Z,99.90
2023-10-12T03:27:29.901Z,99.90
2023-10-12T03:30:51.722Z,99.90
2023-10-12T03:34:13.556Z,99.90
2023-10-12T03:37:36.536Z,99.90
2023-10-12T03:40:58.138Z,99.90
2023-10-12T03:44:19.911Z,99.90
2023-10-12T03:47:41.759Z,99.90
2023-10-12T03:51:03.441Z,99.90
2023-10-12T03:54:26.493Z,99.90
2023-10-12T03:57:48.265Z,99.90
2023-10-12T04:01:10.083Z,99.90
2023-10-12T04:04:31.836Z,99.90
2023-10-12T04:07:53.529Z,99.90
2023-10-12T04:11:16.586Z,99.90
2023-10-12T04:14:38.654Z,99.90
2023-10-12T04:18:01.051Z,99.90
2023-10-12T04:21:23.125Z,99.90
2023-10-12T04:24:44.990Z,99.90
2023-10-12T04:28:08.102Z,99.90
2023-10-12T04:31:29.768Z,99.90
2023-10-12T04:34:51.869Z,99.90
2023-10-12T04:38:13.549Z,99.90
2023-10-12T04:41:35.318Z,99.90
2023-10-12T04:44:58.352Z,99.90
2023-10-12T04:48:20.007Z,99.90
2023-10-12T04:51:41.780Z,99.90
2023-10-12T04:55:03.689Z,99.90
2023-10-12T04:58:25.345Z,99.90
2023-10-12T05:01:48.373Z,99.90
2023-10-12T05:05:10.248Z,99.90
2023-10-12T05:08:32.510Z,99.90
2023-10-12T05:11:54.136Z,99.90
2023-10-12T05:15:15.769Z,99.90
2023-10-12T05:18:38.891Z,99.90
2023-10-12T05:22:00.739Z,99.90
2023-10-12T05:25:22.473Z,99.90
2023-10-12T05:28:44.148Z,99.90
2023-10-12T05:32:06.036Z,99.90
2023-10-12T05:35:31.733Z,99.90
2023-10-12T05:38:53.495Z,99.90
2023-10-12T05:42:15.346Z,99.90
2023-10-12T05:45:37.111Z,99.90
2023-10-12T05:48:58.801Z,99.90
2023-10-12T05:52:21.948Z,99.90
2023-10-12T05:55:43.735Z,99.90
2023-10-12T05:59:05.398Z,99.90
2023-10-12T06:02:27.148Z,99.90
2023-10-12T06:05:48.872Z,99.90
2023-10-12T06:09:12.436Z,99.90
2023-10-12T06:12:34.112Z,99.90
2023-10-12T06:15:55.794Z,99.90
2023-10-12T06:19:17.452Z,99.90
2023-10-12T06:22:39.142Z,99.90
2023-10-12T06:26:07.712Z,99.90
2023-10-12T06:29:31.186Z,99.90
2023-10-12T06:32:52.890Z,99.90
2023-10-12T06:36:14.616Z,99.90
2023-10-12T06:39:36.299Z,99.90
2023-10-12T06:42:59.983Z,99.90
2023-10-12T06:46:21.719Z,99.90
2023-10-12T06:49:43.369Z,99.90
2023-10-12T06:53:05.030Z,99.90
2023-10-12T06:56:26.700Z,99.90
2023-10-12T06:59:50.292Z,99.90
2023-10-12T07:03:12.006Z,99.90
2023-10-12T07:06:34.242Z,99.90
2023-10-12T07:09:57.684Z,99.90
2023-10-12T07:13:19.430Z,99.90
2023-10-12T07:16:43.116Z,99.90
2023-10-12T07:20:05.526Z,99.90
2023-10-12T07:23:27.260Z,99.90
2023-10-12T07:26:48.906Z,99.90
2023-10-12T07:30:11.115Z,99.90
2023-10-12T07:33:34.275Z,99.90
2023-10-12T07:36:56.109Z,99.90
2023-10-12T07:40:17.862Z,99.90
2023-10-12T07:43:39.680Z,99.90
2023-10-12T07:47:01.428Z,99.90
2023-10-12T07:50:24.580Z,99.90
2023-10-12T07:53:46.974Z,99.90
2023-10-12T07:57:08.796Z,99.90
2023-10-12T08:00:30.453Z,99.90
2023-10-12T08:03:52.584Z,99.90
2023-10-12T08:07:15.790Z,99.90
2023-10-12T08:10:38.257Z,99.90
2023-10-12T08:13:59.907Z,99.90
2023-10-12T08:17:21.825Z,99.90
2023-10-12T08:20:43.451Z,99.90
2023-10-12T08:24:07.248Z,99.90
2023-10-12T08:27:28.936Z,99.90
2023-10-12T08:30:50.651Z,99.90
2023-10-12T08:34:12.725Z,99.70
2023-10-12T08:37:34.630Z,98.60
2023-10-12T08:40:57.733Z,97.60
2023-10-12T08:44:20.811Z,97.30
2023-10-12T08:47:43.313Z,97.20
2023-10-12T08:51:08.081Z,97.60
2023-10-12T08:54:29.728Z,96.40
2023-10-12T08:57:57.706Z,96.90
2023-10-12T09:01:19.631Z,97.20
2023-10-12T09:04:41.431Z,96.70
2023-10-12T09:08:03.755Z,96.80
2023-10-12T09:11:25.448Z,97.40
2023-10-12T09:14:48.463Z,97.60
2023-10-12T09:18:10.261Z,97.00
2023-10-12T09:21:32.034Z,97.20
2023-10-12T09:24:53.999Z,97.20
2023-10-12T09:28:15.758Z,96.90
2023-10-12T09:31:39.314Z,96.60
2023-10-12T09:35:01.123Z,96.60
2023-10-12T09:38:22.797Z,96.70
2023-10-12T09:41:45.322Z,96.70
2023-10-12T09:45:13.080Z,96.50
2023-10-12T09:48:45.420Z,96.40
2023-10-12T09:52:09.538Z,96.10
2023-10-12T09:55:33.642Z,95.90
2023-10-12T09:58:55.598Z,95.90
2023-10-12T10:02:17.490Z,95.90
2023-10-12T10:05:42.531Z,95.20
2023-10-12T10:09:04.535Z,95.30
2023-10-12T10:12:26.293Z,95.40
2023-10-12T10:15:48.709Z,95.50
2023-10-12T10:19:13.691Z,95.50
2023-10-12T10:22:36.721Z,95.50
2023-10-12T10:25:58.908Z,95.40
2023-10-12T10:29:20.554Z,95.70
2023-10-12T10:32:42.231Z,95.80
2023-10-12T10:36:04.614Z,95.60
2023-10-12T10:39:27.631Z,95.40
2023-10-12T10:42:49.483Z,95.90
2023-10-12T10:46:12.679Z,95.30
2023-10-12T10:49:35.558Z,95.90
2023-10-12T10:52:57.628Z,96.10
2023-10-12T10:56:22.328Z,95.50
2023-10-12T10:59:46.660Z,95.80
2023-10-12T11:03:09.459Z,95.40
2023-10-12T11:06:31.203Z,95.70
2023-10-12T11:09:53.822Z,95.40
2023-10-12T11:13:17.325Z,95.60
2023-10-12T11:16:39.142Z,95.10
2023-10-12T11:20:00.910Z,95.00
2023-10-12T11:23:22.615Z,95.30
2023-10-12T11:26:50.920Z,95.40
2023-10-12T11:30:28.943Z,95.00
2023-10-12T11:33:50.806Z,94.80
2023-10-12T11:37:12.657Z,95.00
2023-10-12T11:40:34.295Z,95.60
2023-10-12T11:43:56.289Z,95.20
2023-10-12T11:47:34.401Z,95.20
2023-10-12T11:50:56.644Z,95.00
2023-10-12T11:54:18.564Z,94.80
2023-10-12T11:57:40.367Z,94.80
2023-10-12T12:01:02.065Z,94.70
2023-10-12T12:04:25.220Z,94.30
2023-10-12T12:07:46.890Z,94.70
2023-10-12T12:11:08.547Z,94.60
2023-10-12T12:14:30.201Z,94.00
2023-10-12T12:17:51.937Z,94.30
2023-10-12T12:21:15.113Z,93.90
2023-10-12T12:24:36.752Z,93.80
2023-10-12T12:27:58.476Z,93.60
2023-10-12T12:31:20.219Z,93.60
2023-10-12T12:34:41.882Z,94.30
2023-10-12T12:38:07.301Z,94.10
2023-10-12T12:41:28.912Z,94.30
2023-10-12T12:44:50.552Z,94.30
2023-10-12T12:48:12.267Z,94.30
2023-10-12T12:51:34.197Z,94.80
2023-10-12T12:54:57.326Z,94.50
2023-10-12T12:58:19.073Z,94.70
2023-10-12T13:01:40.804Z,94.70
2023-10-12T13:05:02.531Z,94.80
2023-10-12T13:08:24.170Z,94.60
2023-10-12T13:11:47.154Z,94.40
2023-10-12T13:15:09.729Z,94.80
2023-10-12T13:18:31.745Z,95.40
2023-10-12T13:21:53.603Z,95.30
2023-10-12T13:25:17.465Z,96.20
2023-10-12T13:28:40.882Z,95.80
2023-10-12T13:32:02.523Z,96.20
2023-10-12T13:35:24.210Z,97.10
2023-10-12T13:38:45.871Z,97.40
2023-10-12T13:42:07.481Z,96.60
2023-10-12T13:45:30.495Z,96.20
2023-10-12T13:48:52.155Z,97.30
2023-10-12T13:52:13.838Z,96.30
2023-10-12T13:55:36.401Z,96.60
2023-10-12T13:58:58.042Z,94.40
2023-10-12T14:02:21.073Z,94.20
2023-10-12T14:05:42.888Z,93.50
2023-10-12T14:09:04.591Z,93.10
2023-10-12T14:12:26.224Z,92.50
2023-10-12T14:15:47.983Z,92.60
2023-10-12T14:19:11.083Z,92.30
2023-10-12T14:22:32.886Z,91.70
2023-10-12T14:25:54.961Z,91.60
2023-10-12T14:29:16.602Z,91.60
2023-10-12T14:32:38.388Z,91.10
2023-10-12T14:36:01.430Z,91.50
2023-10-12T14:39:23.276Z,91.60
2023-10-12T14:42:44.912Z,91.70
2023-10-12T14:46:09.146Z,91.00
2023-10-12T14:49:32.769Z,91.00
2023-10-12T14:52:57.555Z,91.30
2023-10-12T14:56:23.667Z,91.00
2023-10-12T14:59:45.290Z,91.60
2023-10-12T15:03:07.003Z,92.00
2023-10-12T15:06:28.765Z,90.90
2023-10-12T15:09:51.796Z,90.40
2023-10-12T15:13:13.861Z,90.30
2023-10-12T15:16:35.675Z,90.70
2023-10-12T15:19:57.599Z,90.60
2023-10-12T15:23:20.161Z,91.30
2023-10-12T15:26:43.318Z,91.60
2023-10-12T15:30:05.586Z,92.20
2023-10-12T15:33:27.354Z,91.70
2023-10-12T15:36:49.256Z,90.70
2023-10-12T15:40:11.170Z,91.30
2023-10-12T15:43:35.553Z,91.80
2023-10-12T15:47:01.731Z,91.00
2023-10-12T15:50:29.115Z,91.50
2023-10-12T15:53:51.214Z,91.60
2023-10-12T15:57:14.188Z,90.60
2023-10-12T16:00:44.275Z,91.20
2023-10-12T16:04:20.402Z,91.00
2023-10-12T16:07:44.844Z,91.90
2023-10-12T16:11:07.305Z,91.80
2023-10-12T16:14:30.002Z,91.20
2023-10-12T16:17:53.268Z,91.90
2023-10-12T16:21:15.213Z,91.80
2023-10-12T16:24:37.269Z,91.40
2023-10-12T16:27:58.936Z,92.00
2023-10-12T16:31:20.653Z,92.60
2023-10-12T16:34:43.698Z,91.20
2023-10-12T16:38:05.337Z,91.40
2023-10-12T16:41:27.199Z,90.80
2023-10-12T16:44:48.897Z,91.00
2023-10-12T16:48:10.658Z,91.20
2023-10-12T16:51:33.734Z,90.80
2023-10-12T16:54:55.408Z,90.90
2023-10-12T16:58:17.089Z,91.40
2023-10-12T17:01:39.264Z,91.20
2023-10-12T17:05:00.976Z,91.40
2023-10-12T17:08:23.985Z,91.30
2023-10-12T17:11:45.591Z,91.70
2023-10-12T17:15:07.807Z,91.00
2023-10-12T17:18:29.465Z,91.60
2023-10-12T17:21:51.135Z,91.70
2023-10-12T17:25:14.518Z,91.50
2023-10-12T17:28:36.348Z,91.70
2023-10-12T17:31:58.208Z,91.00
2023-10-12T17:35:19.876Z,93.00
2023-10-12T17:38:42.700Z,91.40
2023-10-12T17:42:05.729Z,91.40
2023-10-12T17:45:27.501Z,91.00
2023-10-12T17:48:49.906Z,90.90
2023-10-12T17:52:11.736Z,91.10
2023-10-12T17:55:36.616Z,90.40
2023-10-12T17:58:59.734Z,90.60
2023-10-12T18:02:21.364Z,90.80
2023-10-12T18:05:43.165Z,90.70
2023-10-12T18:09:04.882Z,90.70
2023-10-12T18:12:26.501Z,90.40
2023-10-12T18:15:55.704Z,91.40
2023-10-12T18:19:17.494Z,91.40
2023-10-12T18:22:39.352Z,90.70
2023-10-12T18:26:01.228Z,90.60
2023-10-12T18:29:22.971Z,90.40
2023-10-12T18:32:47.274Z,90.50
2023-10-12T18:36:10.063Z,90.10
2023-10-12T18:39:31.754Z,89.80
2023-10-12T18:42:53.427Z,89.70
2023-10-12T18:46:15.190Z,89.10
2023-10-12T18:49:38.322Z,88.90
2023-10-12T18:53:00.119Z,89.10
2023-10-12T18:56:21.872Z,89.00
2023-10-12T18:59:43.600Z,89.20
2023-10-12T19:03:05.475Z,88.90
2023-10-12T19:06:33.682Z,89.50
2023-10-12T19:10:02.398Z,89.60
2023-10-12T19:13:24.935Z,89.30
2023-10-12T19:16:46.782Z,89.00
2023-10-12T19:20:08.889Z,89.00
2023-10-12T19:23:34.752Z,88.40
2023-10-12T19:26:58.354Z,89.00
2023-10-12T19:30:20.456Z,88.90
2023-10-12T19:33:50.558Z,89.20
2023-10-12T19:37:13.446Z,88.70
2023-10-12T19:40:38.382Z,89.20
2023-10-12T19:44:01.104Z,89.50
2023-10-12T19:47:23.804Z,89.20
2023-10-12T19:50:50.859Z,88.70
2023-10-12T19:54:12.850Z,88.90
2023-10-12T19:57:36.067Z,88.60
2023-10-12T20:00:58.833Z,89.90
2023-10-12T20:04:20.579Z,89.10
2023-10-12T20:07:42.222Z,88.90
2023-10-12T20:11:08.780Z,89.60
2023-10-12T20:14:31.745Z,89.20
2023-10-12T20:17:59.975Z,88.40
2023-10-12T20:21:22.338Z,88.50
2023-10-12T20:24:45.647Z,88.40
2023-10-12T20:28:07.399Z,89.50
2023-10-12T20:31:30.611Z,89.30
2023-10-12T20:34:52.323Z,89.50
2023-10-12T20:38:14.259Z,90.40
2023-10-12T20:41:35.915Z,89.20
2023-10-12T20:44:57.540Z,88.80
2023-10-12T20:48:20.549Z,89.00
2023-10-12T20:51:42.235Z,89.20
2023-10-12T20:55:04.026Z,89.30
2023-10-12T20:58:26.304Z,88.60
2023-10-12T21:01:48.432Z,89.70
2023-10-12T21:05:11.877Z,89.20
2023-10-12T21:08:33.599Z,88.60
2023-10-12T21:11:55.262Z,88.70
2023-10-12T21:15:16.981Z,89.40
2023-10-12T21:18:38.588Z,88.10
2023-10-12T21:22:01.557Z,87.70
2023-10-12T21:25:23.247Z,89.20
2023-10-12T21:28:44.881Z,88.00
2023-10-12T21:32:06.549Z,89.00
2023-10-12T21:35:28.196Z,88.50
2023-10-12T21:38:51.267Z,89.50
2023-10-12T21:42:13.539Z,88.70
2023-10-12T21:45:35.265Z,88.30
2023-10-12T21:48:57.104Z,88.40
2023-10-12T21:52:18.758Z,89.40
2023-10-12T21:55:43.584Z,88.50
2023-10-12T21:59:08.881Z,88.90
2023-10-12T22:02:30.626Z,90.00
2023-10-12T22:05:52.319Z,90.70
2023-10-12T22:09:13.939Z,90.90
2023-10-12T22:12:36.922Z,91.60
2023-10-12T22:15:58.658Z,90.60
2023-10-12T22:19:20.741Z,90.70
2023-10-12T22:22:42.602Z,90.70
2023-10-12T22:26:04.198Z,90.90
2023-10-12T22:29:27.397Z,91.30
2023-10-12T22:32:49.065Z,90.40
2023-10-12T22:36:10.785Z,91.00
2023-10-12T22:39:32.485Z,91.20
2023-10-12T22:42:54.285Z,90.70
2023-10-12T22:46:17.325Z,90.50
2023-10-12T22:49:39.031Z,90.30
2023-10-12T22:53:00.840Z,90.50
2023-10-12T22:56:22.651Z,90.80
2023-10-12T22:59:44.570Z,90.30
2023-10-12T23:03:07.807Z,90.10
2023-10-12T23:06:30.001Z,89.30
2023-10-12T23:09:51.916Z,90.50
2023-10-12T23:13:14.249Z,91.50
2023-10-12T23:16:36.503Z,91.10
2023-10-12T23:19:59.571Z,91.20
2023-10-12T23:23:21.264Z,92.10
2023-10-12T23:26:42.945Z,92.40
2023-10-12T23:30:05.259Z,92.70
2023-10-12T23:33:26.960Z,93.20
2023-10-12T23:36:50.519Z,94.00
2023-10-12T23:40:12.909Z,94.00
2023-10-12T23:43:35.342Z,94.80
2023-10-12T23:46:57.497Z,95.00
2023-10-12T23:50:19.350Z,95.00
2023-10-12T23:53:42.652Z,94.50
2023-10-12T23:57:04.601Z,94.40
